Time,TemperatureF,DewpointF,PressureIn,WindDirection,WindDirectionDegrees,WindSpeedMPH,WindSpeedGustMPH,Humidity,HourlyPrecipIn,Conditions,Clouds,dailyrainin,SoftwareType,DateUTC
2013-02-24 00:00:00,36.6,33.7,29.81,NE,37,0.0,0.0,89,0.00,,,0.03,Wunderground v.1.15,2013-02-24 05:00:00,
2013-02-24 00:05:00,36.2,33.3,29.81,NE,37,0.0,0.0,89,0.00,,,0.00,Wunderground v.1.15,2013-02-24 05:05:00,
2013-02-24 00:10:00,36.0,33.4,29.81,NE,37,0.0,0.0,90,0.00,,,0.00,Wunderground v.1.15,2013-02-24 05:10:00,
2013-02-24 00:20:00,35.6,33.0,29.82,NE,39,0.0,0.0,90,0.00,,,0.00,Wunderground v.1.15,2013-02-24 05:20:00,
2013-02-24 00:30:00,35.5,33.1,29.83,NE,48,0.0,0.0,91,0.00,,,0.00,Wunderground v.1.15,2013-02-24 05:30:00,
2013-02-24 00:40:00,35.4,33.3,29.83,NE,48,0.0,0.0,92,0.00,,,0.00,Wunderground v.1.15,2013-02-24 05:40:00,
2013-02-24 00:50:00,35.4,33.3,29.84,NE,48,1.0,1.0,92,0.00,,,0.00,Wunderground v.1.15,2013-02-24 05:50:00,
2013-02-24 00:55:00,35.5,33.4,29.84,NE,48,1.0,1.0,92,0.00,,,0.00,Wunderground v.1.15,2013-02-24 05:55:00,
2013-02-24 01:05:00,35.6,33.5,29.84,NE,48,0.0,0.0,92,0.00,,,0.00,Wunderground v.1.15,2013-02-24 06:05:00,
2013-02-24 01:15:00,35.9,33.8,29.84,NE,48,0.0,1.0,92,0.00,,,0.00,Wunderground v.1.15,2013-02-24 06:15:00,
2013-02-24 01:25:00,35.5,33.1,29.85,NE,48,0.0,0.0,91,0.00,,,0.00,Wunderground v.1.15,2013-02-24 06:25:00,
2013-02-24 01:35:00,35.2,33.1,29.85,NE,48,0.0,0.0,92,0.00,,,0.00,Wunderground v.1.15,2013-02-24 06:35:00,
2013-02-24 01:45:00,35.2,33.1,29.84,NE,48,0.0,0.0,92,0.00,,,0.00,Wunderground v.1.15,2013-02-24 06:45:00,
2013-02-24 01:55:00,35.2,33.1,29.84,NE,48,0.0,1.0,92,0.00,,,0.00,Wunderground v.1.15,2013-02-24 06:55:00,
2013-02-24 02:05:00,35.4,33.3,29.84,NE,48,0.0,0.0,92,0.00,,,0.00,Wunderground v.1.15,2013-02-24 07:05:00,
2013-02-24 02:15:00,35.7,33.9,29.83,NE,48,0.0,1.0,93,0.00,,,0.00,Wunderground v.1.15,2013-02-24 07:15:00,
2013-02-24 02:25:00,35.9,33.8,29.82,NE,48,0.0,1.0,92,0.00,,,0.00,Wunderground v.1.15,2013-02-24 07:25:00,
2013-02-24 02:30:00,35.8,33.7,29.82,NE,48,0.0,0.0,92,0.00,,,0.00,Wunderground v.1.15,2013-02-24 07:30:00,
2013-02-24 02:40:00,35.4,33.3,29.82,NE,48,0.0,0.0,92,0.00,,,0.00,Wunderground v.1.15,2013-02-24 07:40:00,
2013-02-24 02:50:00,35.7,33.6,29.82,NE,48,0.0,0.0,92,0.00,,,0.00,Wunderground v.1.15,2013-02-24 07:50:00,
2013-02-24 03:00:00,35.7,33.1,29.82,NNW,347,0.0,1.0,90,0.00,,,0.00,Wunderground v.1.15,2013-02-24 08:00:00,
2013-02-24 03:05:00,35.6,33.2,29.83,NNW,346,0.0,2.0,91,0.00,,,0.00,Wunderground v.1.15,2013-02-24 08:05:00,
2013-02-24 03:15:00,35.7,33.3,29.83,NW,314,1.0,1.0,91,0.00,,,0.00,Wunderground v.1.15,2013-02-24 08:15:00,
2013-02-24 03:25:00,35.9,33.3,29.82,NNE,28,1.0,2.0,90,0.00,,,0.00,Wunderground v.1.15,2013-02-24 08:25:00,
2013-02-24 03:35:00,35.1,32.5,29.83,ESE,104,1.0,1.0,90,0.00,,,0.00,Wunderground v.1.15,2013-02-24 08:35:00,
2013-02-24 03:45:00,34.5,32.1,29.82,ESE,103,0.0,0.0,91,0.00,,,0.00,Wunderground v.1.15,2013-02-24 08:45:00,
2013-02-24 03:55:00,34.2,32.1,29.83,NE,37,0.0,1.0,92,0.00,,,0.00,Wunderground v.1.15,2013-02-24 08:55:00,
2013-02-24 04:05:00,34.2,32.1,29.83,ENE,66,0.0,1.0,92,0.00,,,0.00,Wunderground v.1.15,2013-02-24 09:05:00,
2013-02-24 04:15:00,34.3,32.2,29.83,ENE,66,0.0,0.0,92,0.00,,,0.00,Wunderground v.1.15,2013-02-24 09:15:00,
2013-02-24 04:25:00,34.8,32.7,29.83,SSW,211,1.0,3.0,92,0.00,,,0.00,Wunderground v.1.15,2013-02-24 09:25:00,
2013-02-24 04:35:00,35.3,32.7,29.83,SSE,147,1.0,2.0,90,0.00,,,0.00,Wunderground v.1.15,2013-02-24 09:35:00,
2013-02-24 04:45:00,35.5,32.3,29.83,ESE,103,1.0,4.0,88,0.00,,,0.00,Wunderground v.1.15,2013-02-24 09:45:00,
2013-02-24 04:55:00,35.7,31.6,29.84,NNW,339,1.0,1.0,85,0.00,,,0.00,Wunderground v.1.15,2013-02-24 09:55:00,
2013-02-24 05:05:00,35.8,31.4,29.83,NNW,339,0.0,1.0,84,0.00,,,0.00,Wunderground v.1.15,2013-02-24 10:05:00,
2013-02-24 05:15:00,36.1,31.1,29.84,WNW,283,1.0,1.0,82,0.00,,,0.00,Wunderground v.1.15,2013-02-24 10:15:00,
2013-02-24 05:25:00,36.6,31.3,29.83,WSW,252,2.0,10.0,81,0.00,,,0.00,Wunderground v.1.15,2013-02-24 10:25:00,
2013-02-24 05:35:00,36.8,31.2,29.84,NW,318,1.0,3.0,80,0.00,,,0.00,Wunderground v.1.15,2013-02-24 10:35:00,
2013-02-24 05:45:00,36.7,30.8,29.84,WSW,243,2.0,3.0,79,0.00,,,0.00,Wunderground v.1.15,2013-02-24 10:45:00,
2013-02-24 05:55:00,36.8,30.3,29.84,West,278,2.0,4.0,77,0.00,,,0.00,Wunderground v.1.15,2013-02-24 10:55:00,
2013-02-24 06:05:00,37.0,29.8,29.84,SW,235,5.0,9.0,75,0.00,,,0.00,Wunderground v.1.15,2013-02-24 11:05:00,
2013-02-24 06:15:00,36.9,29.7,29.84,West,271,2.0,5.0,75,0.00,,,0.00,Wunderground v.1.15,2013-02-24 11:15:00,
2013-02-24 06:25:00,36.7,29.5,29.84,ENE,69,1.0,1.0,75,0.00,,,0.00,Wunderground v.1.15,2013-02-24 11:25:00,
2013-02-24 06:35:00,36.1,29.3,29.84,ESE,104,1.0,1.0,76,0.00,,,0.00,Wunderground v.1.15,2013-02-24 11:35:00,
2013-02-24 06:45:00,36.2,29.4,29.84,North,354,2.0,3.0,76,0.00,,,0.00,Wunderground v.1.15,2013-02-24 11:45:00,
2013-02-24 06:55:00,35.7,28.6,29.84,NNW,327,2.0,2.0,75,0.00,,,0.00,Wunderground v.1.15,2013-02-24 11:55:00,
2013-02-24 07:00:00,35.4,28.3,29.85,East,85,1.0,1.0,75,0.00,,,0.00,Wunderground v.1.15,2013-02-24 12:00:00,
2013-02-24 07:05:00,35.1,28.0,29.86,South,183,1.0,1.0,75,0.00,,,0.00,Wunderground v.1.15,2013-02-24 12:05:00,
2013-02-24 07:15:00,35.0,27.9,29.86,North,354,4.0,4.0,75,0.00,,,0.00,Wunderground v.1.15,2013-02-24 12:15:00,
2013-02-24 07:25:00,34.7,27.3,29.86,SW,232,2.0,6.0,74,0.00,,,0.00,Wunderground v.1.15,2013-02-24 12:25:00,
2013-02-24 07:30:00,34.6,26.8,29.86,SW,234,3.0,5.0,73,0.00,,,0.00,Wunderground v.1.15,2013-02-24 12:30:00,
2013-02-24 07:35:00,34.9,26.8,29.87,ESE,108,4.0,5.0,72,0.00,,,0.00,Wunderground v.1.15,2013-02-24 12:35:00,
2013-02-24 07:40:00,34.9,27.1,29.87,SW,222,3.0,3.0,73,0.00,,,0.00,Wunderground v.1.15,2013-02-24 12:40:00,
2013-02-24 07:50:00,34.9,27.1,29.87,ENE,68,2.0,5.0,73,0.00,,,0.00,Wunderground v.1.15,2013-02-24 12:50:00,
2013-02-24 08:00:00,34.9,26.8,29.88,NNW,336,3.0,3.0,72,0.00,,,0.00,Wunderground v.1.15,2013-02-24 13:00:00,
2013-02-24 08:05:00,35.1,26.6,29.88,North,4,4.0,4.0,71,0.00,,,0.00,Wunderground v.1.15,2013-02-24 13:05:00,
2013-02-24 08:15:00,35.1,27.3,29.88,SW,219,2.0,3.0,73,0.00,,,0.00,Wunderground v.1.15,2013-02-24 13:15:00,
2013-02-24 08:25:00,35.3,27.2,29.89,SW,233,3.0,3.0,72,0.00,,,0.00,Wunderground v.1.15,2013-02-24 13:25:00,
2013-02-24 08:35:00,35.6,27.5,29.89,NE,51,4.0,5.0,72,0.00,,,0.00,Wunderground v.1.15,2013-02-24 13:35:00,
2013-02-24 08:45:00,35.8,27.3,29.89,NW,326,2.0,3.0,71,0.00,,,0.00,Wunderground v.1.15,2013-02-24 13:45:00,
2013-02-24 08:55:00,35.9,27.1,29.89,SSW,212,2.0,2.0,70,0.00,,,0.00,Wunderground v.1.15,2013-02-24 13:55:00,
2013-02-24 09:00:00,36.1,27.3,29.89,SW,231,4.0,4.0,70,0.00,,,0.00,Wunderground v.1.15,2013-02-24 14:00:00,
2013-02-24 09:05:00,36.2,27.4,29.90,WSW,245,3.0,7.0,70,0.00,,,0.00,Wunderground v.1.15,2013-02-24 14:05:00,
2013-02-24 09:15:00,36.1,26.9,29.90,SE,140,5.0,5.0,69,0.00,,,0.00,Wunderground v.1.15,2013-02-24 14:15:00,
2013-02-24 09:25:00,36.0,27.2,29.91,SSW,208,3.0,7.0,70,0.00,,,0.00,Wunderground v.1.15,2013-02-24 14:25:00,
2013-02-24 09:35:00,35.9,26.4,29.90,WNW,287,5.0,5.0,68,0.00,,,0.00,Wunderground v.1.15,2013-02-24 14:35:00,
2013-02-24 09:45:00,36.0,26.5,29.91,WSW,239,5.0,9.0,68,0.00,,,0.00,Wunderground v.1.15,2013-02-24 14:45:00,
2013-02-24 09:55:00,36.3,27.1,29.91,WSW,238,4.0,6.0,69,0.00,,,0.00,Wunderground v.1.15,2013-02-24 14:55:00,
2013-02-24 10:00:00,36.3,26.4,29.91,WNW,297,3.0,6.0,67,0.00,,,0.00,Wunderground v.1.15,2013-02-24 15:00:00,
2013-02-24 10:05:00,36.2,26.3,29.91,SW,220,6.0,9.0,67,0.00,,,0.00,Wunderground v.1.15,2013-02-24 15:05:00,
2013-02-24 10:15:00,36.8,26.9,29.91,WSW,240,4.0,7.0,67,0.00,,,0.00,Wunderground v.1.15,2013-02-24 15:15:00,
2013-02-24 10:25:00,37.1,27.5,29.91,SW,234,4.0,5.0,68,0.00,,,0.00,Wunderground v.1.15,2013-02-24 15:25:00,
2013-02-24 10:35:00,37.8,26.7,29.91,WNW,300,7.0,7.0,64,0.00,,,0.00,Wunderground v.1.15,2013-02-24 15:35:00,
2013-02-24 10:45:00,38.1,27.0,29.90,SSW,213,6.0,9.0,64,0.00,,,0.00,Wunderground v.1.15,2013-02-24 15:45:00,
2013-02-24 10:55:00,39.6,27.6,29.90,WSW,237,4.0,7.0,62,0.00,,,0.00,Wunderground v.1.15,2013-02-24 15:55:00,
2013-02-24 11:05:00,40.5,28.1,29.90,WSW,244,6.0,6.0,61,0.00,,,0.00,Wunderground v.1.15,2013-02-24 16:05:00,
2013-02-24 11:15:00,41.2,27.9,29.90,WSW,252,6.0,9.0,59,0.00,,,0.00,Wunderground v.1.15,2013-02-24 16:15:00,
2013-02-24 11:25:00,42.0,28.7,29.90,West,268,7.0,7.0,59,0.00,,,0.00,Wunderground v.1.15,2013-02-24 16:25:00,
2013-02-24 11:35:00,42.2,27.6,29.90,WSW,241,8.0,8.0,56,0.00,,,0.00,Wunderground v.1.15,2013-02-24 16:35:00,
2013-02-24 11:45:00,41.1,26.6,29.91,SW,215,6.0,9.0,56,0.00,,,0.00,Wunderground v.1.15,2013-02-24 16:45:00,
2013-02-24 11:55:00,40.2,27.0,29.90,West,274,9.0,9.0,59,0.00,,,0.00,Wunderground v.1.15,2013-02-24 16:55:00,
2013-02-24 12:05:00,42.2,27.6,29.90,SW,229,7.0,7.0,56,0.00,,,0.00,Wunderground v.1.15,2013-02-24 17:05:00,
2013-02-24 12:15:00,42.0,26.5,29.90,WSW,249,9.0,9.0,54,0.00,,,0.00,Wunderground v.1.15,2013-02-24 17:15:00,
2013-02-24 12:20:00,42.1,28.4,29.90,SSW,212,7.0,9.0,58,0.00,,,0.00,Wunderground v.1.15,2013-02-24 17:20:00,
2013-02-24 12:30:00,42.0,27.0,29.90,WSW,249,7.0,7.0,55,0.00,,,0.00,Wunderground v.1.15,2013-02-24 17:30:00,
2013-02-24 12:40:00,41.6,27.5,29.91,SW,224,4.0,10.0,57,0.00,,,0.00,Wunderground v.1.15,2013-02-24 17:40:00,
2013-02-24 12:45:00,41.2,26.7,29.90,WSW,245,6.0,17.0,56,0.00,,,0.00,Wunderground v.1.15,2013-02-24 17:45:00,
2013-02-24 12:55:00,41.5,26.1,29.90,SSW,210,10.0,10.0,54,0.00,,,0.00,Wunderground v.1.15,2013-02-24 17:55:00,
2013-02-24 13:05:00,42.2,26.3,29.90,WNW,284,9.0,14.0,53,0.00,,,0.00,Wunderground v.1.15,2013-02-24 18:05:00,
2013-02-24 13:15:00,42.7,27.2,29.89,West,262,6.0,8.0,54,0.00,,,0.00,Wunderground v.1.15,2013-02-24 18:15:00,
2013-02-24 13:20:00,43.8,26.8,29.88,SW,228,7.0,10.0,51,0.00,,,0.00,Wunderground v.1.15,2013-02-24 18:20:00,
2013-02-24 13:30:00,43.5,26.6,29.89,SW,221,8.0,11.0,51,0.00,,,0.00,Wunderground v.1.15,2013-02-24 18:30:00,
2013-02-24 13:40:00,43.8,26.8,29.89,WSW,250,9.0,12.0,51,0.00,,,0.00,Wunderground v.1.15,2013-02-24 18:40:00,
2013-02-24 13:45:00,43.8,26.3,29.89,WSW,243,8.0,12.0,50,0.00,,,0.00,Wunderground v.1.15,2013-02-24 18:45:00,
2013-02-24 13:55:00,41.9,26.0,29.90,WSW,253,9.0,11.0,53,0.00,,,0.00,Wunderground v.1.15,2013-02-24 18:55:00,
2013-02-24 14:05:00,41.1,25.7,29.90,WSW,250,10.0,11.0,54,0.00,,,0.00,Wunderground v.1.15,2013-02-24 19:05:00,
2013-02-24 14:15:00,41.7,26.7,29.90,SSW,212,7.0,10.0,55,0.00,,,0.00,Wunderground v.1.15,2013-02-24 19:15:00,
2013-02-24 14:25:00,39.6,25.6,29.91,NW,308,10.0,19.0,57,0.00,,,0.00,Wunderground v.1.15,2013-02-24 19:25:00,
2013-02-24 14:35:00,39.2,25.6,29.92,West,268,8.0,9.0,58,0.00,,,0.00,Wunderground v.1.15,2013-02-24 19:35:00,
2013-02-24 14:40:00,38.7,25.2,29.92,West,277,8.0,8.0,58,0.00,,,0.00,Wunderground v.1.15,2013-02-24 19:40:00,
2013-02-24 14:50:00,38.4,24.9,29.93,North,354,7.0,7.0,58,0.00,,,0.00,Wunderground v.1.15,2013-02-24 19:50:00,
2013-02-24 15:00:00,37.3,24.7,29.93,WSW,240,8.0,8.0,60,0.00,,,0.00,Wunderground v.1.15,2013-02-24 20:00:00,
2013-02-24 15:05:00,37.4,24.4,29.94,West,268,7.0,8.0,59,0.00,,,0.00,Wunderground v.1.15,2013-02-24 20:05:00,
2013-02-24 15:15:00,36.1,23.9,29.94,SW,228,7.0,8.0,61,0.00,,,0.00,Wunderground v.1.15,2013-02-24 20:15:00,
2013-02-24 15:25:00,35.3,24.0,29.95,SW,228,7.0,10.0,63,0.00,,,0.00,Wunderground v.1.15,2013-02-24 20:25:00,
2013-02-24 15:35:00,35.0,24.0,29.95,SSW,205,6.0,7.0,64,0.00,,,0.00,Wunderground v.1.15,2013-02-24 20:35:00,
2013-02-24 15:45:00,34.6,24.0,29.97,WSW,254,4.0,13.0,65,0.00,,,0.00,Wunderground v.1.15,2013-02-24 20:45:00,
2013-02-24 15:55:00,34.3,24.1,29.97,WNW,284,5.0,9.0,66,0.00,,,0.00,Wunderground v.1.15,2013-02-24 20:55:00,
2013-02-24 16:00:00,34.4,24.6,29.97,WSW,257,5.0,5.0,67,0.00,,,0.00,Wunderground v.1.15,2013-02-24 21:00:00,
2013-02-24 16:05:00,34.1,24.3,29.97,SW,233,4.0,5.0,67,0.00,,,0.00,Wunderground v.1.15,2013-02-24 21:05:00,
2013-02-24 16:15:00,33.9,23.4,29.97,South,179,4.0,4.0,65,0.00,,,0.00,Wunderground v.1.15,2013-02-24 21:15:00,
2013-02-24 16:25:00,33.7,23.5,29.98,SSW,209,4.0,7.0,66,0.00,,,0.00,Wunderground v.1.15,2013-02-24 21:25:00,
2013-02-24 16:30:00,33.5,23.4,29.99,NE,48,5.0,10.0,66,0.00,,,0.00,Wunderground v.1.15,2013-02-24 21:30:00,
2013-02-24 16:40:00,33.0,23.2,29.99,SSW,198,6.0,6.0,67,0.00,,,0.00,Wunderground v.1.15,2013-02-24 21:40:00,
2013-02-24 16:50:00,32.7,23.6,29.99,WSW,253,4.0,8.0,69,0.00,,,0.00,Wunderground v.1.15,2013-02-24 21:50:00,
2013-02-24 17:00:00,32.8,23.0,29.99,NE,39,4.0,4.0,67,0.00,,,0.00,Wunderground v.1.15,2013-02-24 22:00:00,
2013-02-24 17:05:00,32.8,23.0,30.00,SW,218,4.0,4.0,67,0.00,,,0.00,Wunderground v.1.15,2013-02-24 22:05:00,
2013-02-24 17:15:00,32.6,23.6,30.01,SSE,150,5.0,8.0,69,0.00,,,0.00,Wunderground v.1.15,2013-02-24 22:15:00,
2013-02-24 17:25:00,32.4,23.0,30.01,SW,233,3.0,3.0,68,0.00,,,0.00,Wunderground v.1.15,2013-02-24 22:25:00,
2013-02-24 17:30:00,32.3,22.9,30.02,SW,219,3.0,3.0,68,0.00,,,0.00,Wunderground v.1.15,2013-02-24 22:30:00,
2013-02-24 17:40:00,32.2,22.8,30.02,WNW,290,5.0,5.0,68,0.00,,,0.00,Wunderground v.1.15,2013-02-24 22:40:00,
2013-02-24 17:50:00,32.2,23.2,30.03,SE,141,2.0,2.0,69,0.00,,,0.00,Wunderground v.1.15,2013-02-24 22:50:00,
2013-02-24 18:00:00,32.0,23.3,30.04,WSW,240,3.0,15.0,70,0.00,,,0.00,Wunderground v.1.15,2013-02-24 23:00:00,
2013-02-24 18:05:00,31.9,22.9,30.04,NE,56,5.0,15.0,69,0.00,,,0.00,Wunderground v.1.15,2013-02-24 23:05:00,
2013-02-24 18:15:00,31.7,22.7,30.04,SW,231,4.0,10.0,69,0.00,,,0.00,Wunderground v.1.15,2013-02-24 23:15:00,
2013-02-24 18:25:00,31.6,22.2,30.05,North,354,4.0,9.0,68,0.00,,,0.00,Wunderground v.1.15,2013-02-24 23:25:00,
2013-02-24 18:30:00,31.5,22.1,30.05,NE,50,3.0,5.0,68,0.00,,,0.00,Wunderground v.1.15,2013-02-24 23:30:00,
2013-02-24 18:40:00,31.1,23.8,30.06,NNE,25,4.0,4.0,74,0.00,,,0.00,Wunderground v.1.15,2013-02-24 23:40:00,
2013-02-24 18:50:00,30.5,23.5,30.06,SSW,197,3.0,3.0,75,0.00,,,0.00,Wunderground v.1.15,2013-02-24 23:50:00,
2013-02-24 19:00:00,30.2,23.9,30.07,SSW,209,2.0,4.0,77,0.00,,,0.00,Wunderground v.1.15,2013-02-25 00:00:00,
2013-02-24 19:05:00,30.1,22.5,30.07,South,187,1.0,5.0,73,0.00,,,0.00,Wunderground v.1.15,2013-02-25 00:05:00,
2013-02-24 19:15:00,30.2,22.6,30.08,NW,325,2.0,3.0,73,0.00,,,0.00,Wunderground v.1.15,2013-02-25 00:15:00,
2013-02-24 19:25:00,30.4,21.8,30.08,SSW,199,4.0,8.0,70,0.00,,,0.00,Wunderground v.1.15,2013-02-25 00:25:00,
2013-02-24 19:35:00,30.4,21.8,30.09,South,179,3.0,3.0,70,0.00,,,0.00,Wunderground v.1.15,2013-02-25 00:35:00,
2013-02-24 19:45:00,30.2,20.2,30.09,ESE,103,2.0,3.0,66,0.00,,,0.00,Wunderground v.1.15,2013-02-25 00:45:00,
2013-02-24 19:55:00,30.1,20.1,30.10,SSW,198,1.0,1.0,66,0.00,,,0.00,Wunderground v.1.15,2013-02-25 00:55:00,
2013-02-24 20:05:00,30.1,19.7,30.10,SSE,168,3.0,3.0,65,0.00,,,0.00,Wunderground v.1.15,2013-02-25 01:05:00,
2013-02-24 20:15:00,30.1,20.1,30.10,SE,129,2.0,2.0,66,0.00,,,0.00,Wunderground v.1.15,2013-02-25 01:15:00,
2013-02-24 20:25:00,30.1,19.0,30.10,NW,320,2.0,3.0,63,0.00,,,0.00,Wunderground v.1.15,2013-02-25 01:25:00,
2013-02-24 20:35:00,30.0,19.3,30.11,SE,143,1.0,3.0,64,0.00,,,0.00,Wunderground v.1.15,2013-02-25 01:35:00,
2013-02-24 20:40:00,29.8,19.5,30.11,SSW,208,2.0,3.0,65,0.00,,,0.00,Wunderground v.1.15,2013-02-25 01:40:00,
2013-02-24 20:50:00,29.7,19.0,30.11,West,274,2.0,2.0,64,0.00,,,0.00,Wunderground v.1.15,2013-02-25 01:50:00,
2013-02-24 21:00:00,29.4,19.1,30.11,West,271,0.0,0.0,65,0.00,,,0.00,Wunderground v.1.15,2013-02-25 02:00:00,
2013-02-24 21:05:00,29.4,19.4,30.11,West,271,0.0,0.0,66,0.00,,,0.00,Wunderground v.1.15,2013-02-25 02:05:00,
2013-02-24 21:15:00,29.4,19.4,30.11,ESE,113,0.0,1.0,66,0.00,,,0.00,Wunderground v.1.15,2013-02-25 02:15:00,
2013-02-24 21:25:00,29.4,19.8,30.11,ESE,117,1.0,1.0,67,0.00,,,0.00,Wunderground v.1.15,2013-02-25 02:25:00,
2013-02-24 21:30:00,29.4,19.8,30.11,East,91,1.0,2.0,67,0.00,,,0.00,Wunderground v.1.15,2013-02-25 02:30:00,
2013-02-24 21:40:00,29.4,20.5,30.11,NW,322,1.0,1.0,69,0.00,,,0.00,Wunderground v.1.15,2013-02-25 02:40:00,
2013-02-24 21:50:00,29.4,19.8,30.11,WNW,285,1.0,4.0,67,0.00,,,0.00,Wunderground v.1.15,2013-02-25 02:50:00,
2013-02-24 21:55:00,29.4,19.8,30.11,SW,227,2.0,4.0,67,0.00,,,0.00,Wunderground v.1.15,2013-02-25 02:55:00,
2013-02-24 22:00:00,29.3,19.3,30.11,NW,304,1.0,1.0,66,0.00,,,0.00,Wunderground v.1.15,2013-02-25 03:00:00,
2013-02-24 22:05:00,29.2,19.2,30.11,South,181,0.0,2.0,66,0.00,,,0.00,Wunderground v.1.15,2013-02-25 03:05:00,
2013-02-24 22:15:00,29.0,19.4,30.11,WNW,296,1.0,1.0,67,0.00,,,0.00,Wunderground v.1.15,2013-02-25 03:15:00,
2013-02-24 22:25:00,28.6,19.0,30.11,WNW,296,0.0,1.0,67,0.00,,,0.00,Wunderground v.1.15,2013-02-25 03:25:00,
2013-02-24 22:30:00,28.3,19.1,30.11,WNW,296,0.0,1.0,68,0.00,,,0.00,Wunderground v.1.15,2013-02-25 03:30:00,
2013-02-24 22:40:00,28.0,19.1,30.11,North,354,0.0,0.0,69,0.00,,,0.00,Wunderground v.1.15,2013-02-25 03:40:00,
2013-02-24 22:50:00,27.7,19.2,30.11,West,273,1.0,1.0,70,0.00,,,0.00,Wunderground v.1.15,2013-02-25 03:50:00,
2013-02-24 22:55:00,27.7,19.2,30.12,West,269,1.0,1.0,70,0.00,,,0.00,Wunderground v.1.15,2013-02-25 03:55:00,
2013-02-24 23:05:00,27.5,19.3,30.11,West,269,0.0,0.0,71,0.00,,,0.00,Wunderground v.1.15,2013-02-25 04:05:00,
2013-02-24 23:15:00,27.1,18.9,30.11,West,277,1.0,1.0,71,0.00,,,0.00,Wunderground v.1.15,2013-02-25 04:15:00,
2013-02-24 23:25:00,27.1,19.3,30.12,West,277,0.0,1.0,72,0.00,,,0.00,Wunderground v.1.15,2013-02-25 04:25:00,
2013-02-24 23:35:00,27.2,19.4,30.12,WSW,238,1.0,1.0,72,0.00,,,0.00,Wunderground v.1.15,2013-02-25 04:35:00,
2013-02-24 23:45:00,27.8,19.6,30.11,SSW,209,2.0,4.0,71,0.00,,,0.00,Wunderground v.1.15,2013-02-25 04:45:00,
2013-02-24 23:55:00,28.1,19.6,30.12,SW,233,2.0,3.0,70,0.00,,,0.00,Wunderground v.1.15,2013-02-25 04:55:00,